sensor_id;sensor_type;location;lat;lon;timestamp;P1;durP1;ratioP1;P2;durP2;ratioP2
14394;SDS011;7282;49.204;10.652;2023-05-19T00:00:34;7.10;;;3.40;;
14394;SDS011;7282;49.204;10.652;2023-05-19T00:03:02;4.77;;;2.70;;
14394;SDS011;7282;49.204;10.652;2023-05-19T00:05:29;6.00;;;3.27;;
14394;SDS011;7282;49.204;10.652;2023-05-19T00:07:57;6.40;;;2.90;;
14394;SDS011;7282;49.204;10.652;2023-05-19T00:10:24;3.37;;;2.80;;
14394;SDS011;7282;49.204;10.652;2023-05-19T00:12:53;5.37;;;2.90;;
14394;SDS011;7282;49.204;10.652;2023-05-19T00:15:20;4.00;;;2.93;;
14394;SDS011;7282;49.204;10.652;2023-05-19T00:17:47;5.63;;;2.90;;
14394;SDS011;7282;49.204;10.652;2023-05-19T00:20:13;5.70;;;2.67;;
14394;SDS011;7282;49.204;10.652;2023-05-19T00:22:40;4.47;;;2.60;;
14394;SDS011;7282;49.204;10.652;2023-05-19T00:25:09;5.27;;;2.67;;
14394;SDS011;7282;49.204;10.652;2023-05-19T00:27:35;6.53;;;3.07;;
14394;SDS011;7282;49.204;10.652;2023-05-19T00:30:02;5.73;;;2.90;;
14394;SDS011;7282;49.204;10.652;2023-05-19T00:32:29;6.50;;;2.93;;
14394;SDS011;7282;49.204;10.652;2023-05-19T00:34:56;4.90;;;2.70;;
14394;SDS011;7282;49.204;10.652;2023-05-19T00:37:22;4.43;;;3.03;;
14394;SDS011;7282;49.204;10.652;2023-05-19T00:39:49;4.43;;;3.00;;
14394;SDS011;7282;49.204;10.652;2023-05-19T00:42:16;4.30;;;2.93;;
14394;SDS011;7282;49.204;10.652;2023-05-19T00:44:42;4.53;;;3.03;;
14394;SDS011;7282;49.204;10.652;2023-05-19T00:47:09;4.33;;;2.97;;
14394;SDS011;7282;49.204;10.652;2023-05-19T00:49:36;6.70;;;3.10;;
14394;SDS011;7282;49.204;10.652;2023-05-19T00:52:02;5.87;;;2.97;;
14394;SDS011;7282;49.204;10.652;2023-05-19T00:54:32;5.17;;;3.30;;
14394;SDS011;7282;49.204;10.652;2023-05-19T00:56:59;3.33;;;2.57;;
14394;SDS011;7282;49.204;10.652;2023-05-19T00:59:26;4.70;;;3.00;;
14394;SDS011;7282;49.204;10.652;2023-05-19T01:01:57;5.83;;;3.23;;
14394;SDS011;7282;49.204;10.652;2023-05-19T01:04:21;4.13;;;2.77;;
14394;SDS011;7282;49.204;10.652;2023-05-19T01:06:49;6.93;;;3.30;;
14394;SDS011;7282;49.204;10.652;2023-05-19T01:09:22;5.30;;;3.00;;
14394;SDS011;7282;49.204;10.652;2023-05-19T01:11:49;3.43;;;2.90;;
14394;SDS011;7282;49.204;10.652;2023-05-19T01:14:15;5.07;;;3.03;;
14394;SDS011;7282;49.204;10.652;2023-05-19T01:16:46;4.83;;;3.37;;
14394;SDS011;7282;49.204;10.652;2023-05-19T01:22:02;4.67;;;2.83;;
14394;SDS011;7282;49.204;10.652;2023-05-19T01:27:08;4.93;;;3.17;;
14394;SDS011;7282;49.204;10.652;2023-05-19T01:29:50;4.50;;;3.30;;
14394;SDS011;7282;49.204;10.652;2023-05-19T01:32:13;3.80;;;3.00;;
14394;SDS011;7282;49.204;10.652;2023-05-19T01:34:42;5.20;;;3.10;;
14394;SDS011;7282;49.204;10.652;2023-05-19T01:37:09;4.83;;;2.93;;
14394;SDS011;7282;49.204;10.652;2023-05-19T01:39:37;5.37;;;3.10;;
14394;SDS011;7282;49.204;10.652;2023-05-19T01:42:04;4.33;;;3.07;;
14394;SDS011;7282;49.204;10.652;2023-05-19T01:44:31;6.63;;;3.03;;
14394;SDS011;7282;49.204;10.652;2023-05-19T01:46:58;5.53;;;3.10;;
14394;SDS011;7282;49.204;10.652;2023-05-19T01:49:27;5.87;;;3.10;;
14394;SDS011;7282;49.204;10.652;2023-05-19T01:51:54;3.87;;;3.00;;
14394;SDS011;7282;49.204;10.652;2023-05-19T01:54:21;3.93;;;3.10;;
14394;SDS011;7282;49.204;10.652;2023-05-19T01:57:03;5.77;;;3.30;;
14394;SDS011;7282;49.204;10.652;2023-05-19T02:02:13;5.13;;;3.17;;
14394;SDS011;7282;49.204;10.652;2023-05-19T02:04:45;3.27;;;2.60;;
14394;SDS011;7282;49.204;10.652;2023-05-19T02:09:54;7.43;;;3.33;;
14394;SDS011;7282;49.204;10.652;2023-05-19T02:12:23;4.73;;;3.13;;
14394;SDS011;7282;49.204;10.652;2023-05-19T02:14:59;4.63;;;2.77;;
14394;SDS011;7282;49.204;10.652;2023-05-19T02:17:25;7.87;;;3.27;;
14394;SDS011;7282;49.204;10.652;2023-05-19T02:19:52;5.73;;;3.00;;
14394;SDS011;7282;49.204;10.652;2023-05-19T02:22:19;4.40;;;3.10;;
14394;SDS011;7282;49.204;10.652;2023-05-19T02:24:46;4.53;;;3.10;;
14394;SDS011;7282;49.204;10.652;2023-05-19T02:27:14;6.57;;;3.17;;
14394;SDS011;7282;49.204;10.652;2023-05-19T02:29:41;5.93;;;3.40;;
14394;SDS011;7282;49.204;10.652;2023-05-19T02:32:09;5.47;;;3.23;;
14394;SDS011;7282;49.204;10.652;2023-05-19T02:34:36;3.97;;;2.90;;
14394;SDS011;7282;49.204;10.652;2023-05-19T02:37:03;4.60;;;3.37;;
14394;SDS011;7282;49.204;10.652;2023-05-19T02:39:30;6.17;;;3.60;;
14394;SDS011;7282;49.204;10.652;2023-05-19T02:41:58;5.20;;;3.33;;
14394;SDS011;7282;49.204;10.652;2023-05-19T02:44:25;5.13;;;2.67;;
14394;SDS011;7282;49.204;10.652;2023-05-19T02:46:52;5.40;;;3.57;;
14394;SDS011;7282;49.204;10.652;2023-05-19T02:49:18;4.97;;;2.67;;
14394;SDS011;7282;49.204;10.652;2023-05-19T02:51:45;5.23;;;3.13;;
14394;SDS011;7282;49.204;10.652;2023-05-19T02:54:12;4.97;;;3.30;;
14394;SDS011;7282;49.204;10.652;2023-05-19T02:56:38;5.87;;;3.43;;
14394;SDS011;7282;49.204;10.652;2023-05-19T02:59:05;5.63;;;3.23;;
14394;SDS011;7282;49.204;10.652;2023-05-19T03:01:32;6.23;;;2.97;;
14394;SDS011;7282;49.204;10.652;2023-05-19T03:03:58;3.90;;;2.93;;
14394;SDS011;7282;49.204;10.652;2023-05-19T03:06:25;4.17;;;2.77;;
14394;SDS011;7282;49.204;10.652;2023-05-19T03:08:52;6.20;;;3.57;;
14394;SDS011;7282;49.204;10.652;2023-05-19T03:11:18;4.27;;;3.10;;
14394;SDS011;7282;49.204;10.652;2023-05-19T03:13:45;7.27;;;3.30;;
14394;SDS011;7282;49.204;10.652;2023-05-19T03:16:12;7.37;;;3.60;;
14394;SDS011;7282;49.204;10.652;2023-05-19T03:18:39;4.30;;;3.20;;
14394;SDS011;7282;49.204;10.652;2023-05-19T03:21:06;3.60;;;3.10;;
14394;SDS011;7282;49.204;10.652;2023-05-19T03:23:33;3.53;;;3.20;;
14394;SDS011;7282;49.204;10.652;2023-05-19T03:25:59;7.43;;;3.27;;
14394;SDS011;7282;49.204;10.652;2023-05-19T03:28:26;4.43;;;3.13;;
14394;SDS011;7282;49.204;10.652;2023-05-19T03:30:53;3.93;;;3.03;;
14394;SDS011;7282;49.204;10.652;2023-05-19T03:33:20;5.17;;;3.20;;
14394;SDS011;7282;49.204;10.652;2023-05-19T03:35:46;3.60;;;3.10;;
14394;SDS011;7282;49.204;10.652;2023-05-19T03:38:13;5.13;;;3.37;;
14394;SDS011;7282;49.204;10.652;2023-05-19T03:40:40;5.33;;;3.17;;
14394;SDS011;7282;49.204;10.652;2023-05-19T03:43:07;3.43;;;3.13;;
14394;SDS011;7282;49.204;10.652;2023-05-19T03:45:36;5.27;;;3.43;;
14394;SDS011;7282;49.204;10.652;2023-05-19T03:48:03;5.97;;;3.30;;
14394;SDS011;7282;49.204;10.652;2023-05-19T03:50:30;5.47;;;2.83;;
14394;SDS011;7282;49.204;10.652;2023-05-19T03:52:56;4.90;;;2.97;;
14394;SDS011;7282;49.204;10.652;2023-05-19T03:55:23;4.47;;;2.90;;
14394;SDS011;7282;49.204;10.652;2023-05-19T03:57:50;6.40;;;3.10;;
14394;SDS011;7282;49.204;10.652;2023-05-19T04:00:19;4.10;;;2.77;;
14394;SDS011;7282;49.204;10.652;2023-05-19T04:02:45;5.40;;;3.37;;
14394;SDS011;7282;49.204;10.652;2023-05-19T04:05:12;4.47;;;3.10;;
14394;SDS011;7282;49.204;10.652;2023-05-19T04:07:39;4.23;;;2.87;;
14394;SDS011;7282;49.204;10.652;2023-05-19T04:10:06;5.27;;;2.97;;
14394;SDS011;7282;49.204;10.652;2023-05-19T04:12:33;5.70;;;2.90;;
14394;SDS011;7282;49.204;10.652;2023-05-19T04:15:00;4.47;;;3.33;;
14394;SDS011;7282;49.204;10.652;2023-05-19T04:17:27;3.40;;;2.80;;
14394;SDS011;7282;49.204;10.652;2023-05-19T04:19:54;3.40;;;2.83;;
14394;SDS011;7282;49.204;10.652;2023-05-19T04:22:21;5.10;;;2.80;;
14394;SDS011;7282;49.204;10.652;2023-05-19T04:24:47;5.10;;;3.10;;
14394;SDS011;7282;49.204;10.652;2023-05-19T04:27:16;3.93;;;3.00;;
14394;SDS011;7282;49.204;10.652;2023-05-19T04:29:43;3.13;;;2.83;;
14394;SDS011;7282;49.204;10.652;2023-05-19T04:32:11;5.37;;;2.80;;
14394;SDS011;7282;49.204;10.652;2023-05-19T04:34:39;6.80;;;3.33;;
14394;SDS011;7282;49.204;10.652;2023-05-19T04:37:08;6.47;;;3.13;;
14394;SDS011;7282;49.204;10.652;2023-05-19T04:39:35;5.67;;;3.00;;
14394;SDS011;7282;49.204;10.652;2023-05-19T04:42:03;3.87;;;2.97;;
14394;SDS011;7282;49.204;10.652;2023-05-19T04:44:30;5.23;;;3.03;;
14394;SDS011;7282;49.204;10.652;2023-05-19T04:46:58;4.77;;;3.10;;
14394;SDS011;7282;49.204;10.652;2023-05-19T04:49:25;5.83;;;3.30;;
14394;SDS011;7282;49.204;10.652;2023-05-19T04:51:51;4.33;;;3.03;;
14394;SDS011;7282;49.204;10.652;2023-05-19T04:54:19;4.83;;;3.13;;
14394;SDS011;7282;49.204;10.652;2023-05-19T04:56:46;4.80;;;3.60;;
14394;SDS011;7282;49.204;10.652;2023-05-19T04:59:13;3.87;;;3.13;;
14394;SDS011;7282;49.204;10.652;2023-05-19T05:01:39;4.83;;;3.20;;
14394;SDS011;7282;49.204;10.652;2023-05-19T05:04:07;4.80;;;3.00;;
14394;SDS011;7282;49.204;10.652;2023-05-19T05:06:34;4.40;;;3.00;;
14394;SDS011;7282;49.204;10.652;2023-05-19T05:09:03;5.67;;;4.30;;
14394;SDS011;7282;49.204;10.652;2023-05-19T05:11:30;4.93;;;3.23;;
14394;SDS011;7282;49.204;10.652;2023-05-19T05:13:56;3.50;;;2.53;;
14394;SDS011;7282;49.204;10.652;2023-05-19T05:16:23;4.43;;;3.27;;
14394;SDS011;7282;49.204;10.652;2023-05-19T05:18:50;4.67;;;3.20;;
14394;SDS011;7282;49.204;10.652;2023-05-19T05:21:17;4.27;;;3.00;;
14394;SDS011;7282;49.204;10.652;2023-05-19T05:23:43;3.97;;;2.90;;
14394;SDS011;7282;49.204;10.652;2023-05-19T05:26:16;5.40;;;3.20;;
14394;SDS011;7282;49.204;10.652;2023-05-19T05:28:39;6.27;;;2.90;;
14394;SDS011;7282;49.204;10.652;2023-05-19T05:31:06;4.17;;;3.30;;
14394;SDS011;7282;49.204;10.652;2023-05-19T05:33:33;6.07;;;2.83;;
14394;SDS011;7282;49.204;10.652;2023-05-19T05:36:00;4.43;;;3.17;;
14394;SDS011;7282;49.204;10.652;2023-05-19T05:38:26;5.40;;;2.93;;
14394;SDS011;7282;49.204;10.652;2023-05-19T05:40:53;6.43;;;3.50;;
14394;SDS011;7282;49.204;10.652;2023-05-19T05:43:20;3.83;;;2.97;;
14394;SDS011;7282;49.204;10.652;2023-05-19T05:45:46;5.90;;;3.57;;
14394;SDS011;7282;49.204;10.652;2023-05-19T05:48:13;5.73;;;3.50;;
14394;SDS011;7282;49.204;10.652;2023-05-19T05:50:41;5.03;;;3.03;;
14394;SDS011;7282;49.204;10.652;2023-05-19T05:53:09;4.50;;;3.30;;
14394;SDS011;7282;49.204;10.652;2023-05-19T05:55:37;6.87;;;4.07;;
14394;SDS011;7282;49.204;10.652;2023-05-19T05:58:04;4.57;;;3.07;;
14394;SDS011;7282;49.204;10.652;2023-05-19T06:00:31;5.20;;;3.20;;
14394;SDS011;7282;49.204;10.652;2023-05-19T06:02:58;8.57;;;3.77;;
14394;SDS011;7282;49.204;10.652;2023-05-19T06:05:24;5.93;;;3.43;;
14394;SDS011;7282;49.204;10.652;2023-05-19T06:07:51;5.03;;;3.23;;
14394;SDS011;7282;49.204;10.652;2023-05-19T06:10:18;5.30;;;3.50;;
14394;SDS011;7282;49.204;10.652;2023-05-19T06:12:45;5.07;;;3.67;;
14394;SDS011;7282;49.204;10.652;2023-05-19T06:15:11;4.87;;;3.70;;
14394;SDS011;7282;49.204;10.652;2023-05-19T06:17:38;4.67;;;3.73;;
14394;SDS011;7282;49.204;10.652;2023-05-19T06:20:05;7.03;;;3.77;;
14394;SDS011;7282;49.204;10.652;2023-05-19T06:22:33;8.13;;;4.03;;
14394;SDS011;7282;49.204;10.652;2023-05-19T06:25:00;6.27;;;3.93;;
14394;SDS011;7282;49.204;10.652;2023-05-19T06:27:26;6.20;;;3.90;;
14394;SDS011;7282;49.204;10.652;2023-05-19T06:29:53;6.40;;;3.90;;
14394;SDS011;7282;49.204;10.652;2023-05-19T06:32:20;5.50;;;3.47;;
14394;SDS011;7282;49.204;10.652;2023-05-19T06:34:46;5.77;;;3.60;;
14394;SDS011;7282;49.204;10.652;2023-05-19T06:37:19;5.07;;;3.80;;
14394;SDS011;7282;49.204;10.652;2023-05-19T06:39:48;5.17;;;3.97;;
14394;SDS011;7282;49.204;10.652;2023-05-19T06:42:21;5.87;;;4.03;;
14394;SDS011;7282;49.204;10.652;2023-05-19T06:44:49;6.50;;;3.70;;
14394;SDS011;7282;49.204;10.652;2023-05-19T06:47:16;4.90;;;3.83;;
14394;SDS011;7282;49.204;10.652;2023-05-19T06:49:43;4.57;;;3.47;;
14394;SDS011;7282;49.204;10.652;2023-05-19T06:52:10;5.33;;;3.47;;
14394;SDS011;7282;49.204;10.652;2023-05-19T06:54:37;5.43;;;4.40;;
14394;SDS011;7282;49.204;10.652;2023-05-19T06:57:03;7.60;;;4.10;;
14394;SDS011;7282;49.204;10.652;2023-05-19T06:59:30;5.50;;;3.80;;
14394;SDS011;7282;49.204;10.652;2023-05-19T07:01:57;5.50;;;3.50;;
14394;SDS011;7282;49.204;10.652;2023-05-19T07:04:24;4.50;;;3.33;;
14394;SDS011;7282;49.204;10.652;2023-05-19T07:06:50;5.67;;;3.90;;
14394;SDS011;7282;49.204;10.652;2023-05-19T07:09:17;6.17;;;3.57;;
14394;SDS011;7282;49.204;10.652;2023-05-19T07:11:44;4.90;;;3.60;;
14394;SDS011;7282;49.204;10.652;2023-05-19T07:14:10;6.83;;;4.30;;
14394;SDS011;7282;49.204;10.652;2023-05-19T07:16:37;5.93;;;3.77;;
14394;SDS011;7282;49.204;10.652;2023-05-19T07:19:04;6.93;;;3.63;;
14394;SDS011;7282;49.204;10.652;2023-05-19T07:21:30;5.70;;;3.33;;
14394;SDS011;7282;49.204;10.652;2023-05-19T07:23:57;5.87;;;3.87;;
14394;SDS011;7282;49.204;10.652;2023-05-19T07:26:24;6.23;;;3.57;;
14394;SDS011;7282;49.204;10.652;2023-05-19T07:28:51;5.83;;;3.73;;
14394;SDS011;7282;49.204;10.652;2023-05-19T07:31:18;4.27;;;3.50;;
14394;SDS011;7282;49.204;10.652;2023-05-19T07:33:45;7.07;;;4.27;;
14394;SDS011;7282;49.204;10.652;2023-05-19T07:36:11;7.53;;;4.57;;
14394;SDS011;7282;49.204;10.652;2023-05-19T07:38:38;6.10;;;3.77;;
14394;SDS011;7282;49.204;10.652;2023-05-19T07:41:05;8.43;;;3.90;;
14394;SDS011;7282;49.204;10.652;2023-05-19T07:43:31;6.90;;;4.00;;
14394;SDS011;7282;49.204;10.652;2023-05-19T07:45:59;5.00;;;3.63;;
14394;SDS011;7282;49.204;10.652;2023-05-19T07:48:25;5.77;;;3.70;;
14394;SDS011;7282;49.204;10.652;2023-05-19T07:50:52;5.20;;;3.33;;
14394;SDS011;7282;49.204;10.652;2023-05-19T07:53:19;6.87;;;3.73;;
14394;SDS011;7282;49.204;10.652;2023-05-19T07:55:46;5.80;;;5.23;;
14394;SDS011;7282;49.204;10.652;2023-05-19T07:58:12;5.83;;;3.80;;
14394;SDS011;7282;49.204;10.652;2023-05-19T08:00:39;6.27;;;3.90;;
14394;SDS011;7282;49.204;10.652;2023-05-19T08:03:08;4.30;;;3.43;;
14394;SDS011;7282;49.204;10.652;2023-05-19T08:05:35;5.47;;;3.47;;
14394;SDS011;7282;49.204;10.652;2023-05-19T08:08:02;6.00;;;3.47;;
14394;SDS011;7282;49.204;10.652;2023-05-19T08:10:29;5.43;;;3.80;;
14394;SDS011;7282;49.204;10.652;2023-05-19T08:12:55;6.40;;;4.20;;
14394;SDS011;7282;49.204;10.652;2023-05-19T08:15:22;5.27;;;3.47;;
14394;SDS011;7282;49.204;10.652;2023-05-19T08:17:50;8.93;;;4.33;;
14394;SDS011;7282;49.204;10.652;2023-05-19T08:20:16;6.23;;;3.77;;
14394;SDS011;7282;49.204;10.652;2023-05-19T08:22:43;7.90;;;4.67;;
14394;SDS011;7282;49.204;10.652;2023-05-19T08:25:10;6.33;;;4.23;;
14394;SDS011;7282;49.204;10.652;2023-05-19T08:27:37;7.63;;;4.17;;
14394;SDS011;7282;49.204;10.652;2023-05-19T08:30:03;8.23;;;3.97;;
14394;SDS011;7282;49.204;10.652;2023-05-19T08:32:30;8.40;;;4.20;;
14394;SDS011;7282;49.204;10.652;2023-05-19T08:34:57;5.80;;;4.23;;
14394;SDS011;7282;49.204;10.652;2023-05-19T08:37:24;7.17;;;4.10;;
14394;SDS011;7282;49.204;10.652;2023-05-19T08:39:50;7.93;;;4.67;;
14394;SDS011;7282;49.204;10.652;2023-05-19T08:42:17;7.50;;;4.40;;
14394;SDS011;7282;49.204;10.652;2023-05-19T08:44:44;7.53;;;4.13;;
14394;SDS011;7282;49.204;10.652;2023-05-19T08:47:10;4.90;;;4.00;;
14394;SDS011;7282;49.204;10.652;2023-05-19T08:49:41;5.63;;;3.90;;
14394;SDS011;7282;49.204;10.652;2023-05-19T08:52:12;7.40;;;4.13;;
14394;SDS011;7282;49.204;10.652;2023-05-19T08:54:42;9.70;;;4.40;;
14394;SDS011;7282;49.204;10.652;2023-05-19T08:57:05;5.90;;;4.20;;
14394;SDS011;7282;49.204;10.652;2023-05-19T08:59:33;6.90;;;3.90;;
14394;SDS011;7282;49.204;10.652;2023-05-19T09:02:01;5.40;;;3.90;;
14394;SDS011;7282;49.204;10.652;2023-05-19T09:04:28;5.77;;;3.67;;
14394;SDS011;7282;49.204;10.652;2023-05-19T09:06:55;6.07;;;4.07;;
14394;SDS011;7282;49.204;10.652;2023-05-19T09:09:21;5.23;;;4.00;;
14394;SDS011;7282;49.204;10.652;2023-05-19T09:11:48;5.13;;;4.17;;
14394;SDS011;7282;49.204;10.652;2023-05-19T09:14:15;4.67;;;3.67;;
14394;SDS011;7282;49.204;10.652;2023-05-19T09:16:41;8.30;;;4.60;;
14394;SDS011;7282;49.204;10.652;2023-05-19T09:19:12;6.53;;;3.77;;
14394;SDS011;7282;49.204;10.652;2023-05-19T09:21:37;6.23;;;4.00;;
14394;SDS011;7282;49.204;10.652;2023-05-19T09:24:04;5.13;;;3.73;;
14394;SDS011;7282;49.204;10.652;2023-05-19T09:26:40;7.73;;;4.30;;
14394;SDS011;7282;49.204;10.652;2023-05-19T09:29:10;6.83;;;4.50;;
14394;SDS011;7282;49.204;10.652;2023-05-19T09:31:37;6.97;;;4.30;;
14394;SDS011;7282;49.204;10.652;2023-05-19T09:34:03;8.53;;;4.00;;
14394;SDS011;7282;49.204;10.652;2023-05-19T09:36:30;5.70;;;4.20;;
14394;SDS011;7282;49.204;10.652;2023-05-19T09:38:57;8.77;;;4.20;;
14394;SDS011;7282;49.204;10.652;2023-05-19T09:41:24;6.13;;;3.80;;
14394;SDS011;7282;49.204;10.652;2023-05-19T09:43:54;5.17;;;3.80;;
14394;SDS011;7282;49.204;10.652;2023-05-19T09:46:24;5.77;;;3.67;;
14394;SDS011;7282;49.204;10.652;2023-05-19T09:48:56;6.00;;;3.70;;
14394;SDS011;7282;49.204;10.652;2023-05-19T09:51:23;5.37;;;3.90;;
14394;SDS011;7282;49.204;10.652;2023-05-19T09:53:51;4.60;;;3.70;;
14394;SDS011;7282;49.204;10.652;2023-05-19T09:56:18;5.50;;;3.60;;
14394;SDS011;7282;49.204;10.652;2023-05-19T09:58:47;5.87;;;3.67;;
14394;SDS011;7282;49.204;10.652;2023-05-19T10:01:13;6.10;;;3.70;;
14394;SDS011;7282;49.204;10.652;2023-05-19T10:03:40;5.77;;;3.50;;
14394;SDS011;7282;49.204;10.652;2023-05-19T10:06:08;4.67;;;3.17;;
14394;SDS011;7282;49.204;10.652;2023-05-19T10:08:37;5.80;;;3.00;;
14394;SDS011;7282;49.204;10.652;2023-05-19T10:11:04;5.40;;;2.80;;
14394;SDS011;7282;49.204;10.652;2023-05-19T10:13:31;3.87;;;2.97;;
14394;SDS011;7282;49.204;10.652;2023-05-19T10:16:00;4.03;;;3.20;;
14394;SDS011;7282;49.204;10.652;2023-05-19T10:18:27;2.90;;;2.60;;
14394;SDS011;7282;49.204;10.652;2023-05-19T10:20:54;4.60;;;2.83;;
14394;SDS011;7282;49.204;10.652;2023-05-19T10:23:22;3.43;;;2.70;;
14394;SDS011;7282;49.204;10.652;2023-05-19T10:25:50;3.57;;;2.70;;
14394;SDS011;7282;49.204;10.652;2023-05-19T10:28:17;3.60;;;2.50;;
14394;SDS011;7282;49.204;10.652;2023-05-19T10:30:49;4.27;;;2.80;;
14394;SDS011;7282;49.204;10.652;2023-05-19T10:33:18;5.53;;;2.80;;
14394;SDS011;7282;49.204;10.652;2023-05-19T10:43:48;5.03;;;2.67;;
14394;SDS011;7282;49.204;10.652;2023-05-19T10:46:15;3.63;;;2.40;;
14394;SDS011;7282;49.204;10.652;2023-05-19T10:48:44;4.17;;;2.60;;
14394;SDS011;7282;49.204;10.652;2023-05-19T10:51:11;3.00;;;2.53;;
14394;SDS011;7282;49.204;10.652;2023-05-19T10:53:41;3.90;;;2.80;;
14394;SDS011;7282;49.204;10.652;2023-05-19T10:56:09;3.00;;;2.70;;
14394;SDS011;7282;49.204;10.652;2023-05-19T11:01:12;3.30;;;2.70;;
14394;SDS011;7282;49.204;10.652;2023-05-19T11:03:45;3.40;;;2.47;;
14394;SDS011;7282;49.204;10.652;2023-05-19T11:06:16;4.77;;;2.83;;
14394;SDS011;7282;49.204;10.652;2023-05-19T11:08:42;4.20;;;2.60;;
14394;SDS011;7282;49.204;10.652;2023-05-19T11:11:17;3.80;;;2.63;;
14394;SDS011;7282;49.204;10.652;2023-05-19T11:13:42;3.33;;;2.57;;
14394;SDS011;7282;49.204;10.652;2023-05-19T11:16:10;3.67;;;2.60;;
14394;SDS011;7282;49.204;10.652;2023-05-19T11:18:37;3.93;;;2.60;;
14394;SDS011;7282;49.204;10.652;2023-05-19T11:21:03;4.00;;;2.67;;
14394;SDS011;7282;49.204;10.652;2023-05-19T11:23:33;3.77;;;2.83;;
14394;SDS011;7282;49.204;10.652;2023-05-19T11:26:01;3.43;;;2.80;;
14394;SDS011;7282;49.204;10.652;2023-05-19T11:28:28;5.33;;;3.07;;
14394;SDS011;7282;49.204;10.652;2023-05-19T11:30:56;2.87;;;2.43;;
14394;SDS011;7282;49.204;10.652;2023-05-19T11:33:24;4.00;;;2.70;;
14394;SDS011;7282;49.204;10.652;2023-05-19T11:35:53;2.40;;;2.10;;
14394;SDS011;7282;49.204;10.652;2023-05-19T11:38:22;3.37;;;2.60;;
14394;SDS011;7282;49.204;10.652;2023-05-19T11:40:51;4.70;;;3.10;;
14394;SDS011;7282;49.204;10.652;2023-05-19T11:43:18;3.17;;;2.77;;
14394;SDS011;7282;49.204;10.652;2023-05-19T11:45:44;3.97;;;2.70;;
14394;SDS011;7282;49.204;10.652;2023-05-19T11:48:11;6.13;;;3.10;;
14394;SDS011;7282;49.204;10.652;2023-05-19T11:50:41;3.53;;;2.63;;
14394;SDS011;7282;49.204;10.652;2023-05-19T11:53:10;3.97;;;2.87;;
14394;SDS011;7282;49.204;10.652;2023-05-19T11:55:46;2.87;;;2.57;;
14394;SDS011;7282;49.204;10.652;2023-05-19T11:58:10;3.47;;;2.60;;
14394;SDS011;7282;49.204;10.652;2023-05-19T12:00:38;3.73;;;2.63;;
14394;SDS011;7282;49.204;10.652;2023-05-19T12:03:05;3.23;;;2.80;;
14394;SDS011;7282;49.204;10.652;2023-05-19T12:05:32;3.57;;;2.47;;
14394;SDS011;7282;49.204;10.652;2023-05-19T12:08:00;4.43;;;2.97;;
14394;SDS011;7282;49.204;10.652;2023-05-19T12:10:29;3.13;;;2.63;;
14394;SDS011;7282;49.204;10.652;2023-05-19T12:12:56;4.20;;;2.40;;
14394;SDS011;7282;49.204;10.652;2023-05-19T12:15:25;4.30;;;2.53;;
14394;SDS011;7282;49.204;10.652;2023-05-19T12:17:55;3.37;;;2.50;;
14394;SDS011;7282;49.204;10.652;2023-05-19T12:20:22;2.87;;;2.57;;
14394;SDS011;7282;49.204;10.652;2023-05-19T12:22:49;3.23;;;2.80;;
14394;SDS011;7282;49.204;10.652;2023-05-19T12:25:16;3.13;;;2.30;;
14394;SDS011;7282;49.204;10.652;2023-05-19T12:27:43;3.53;;;2.43;;
14394;SDS011;7282;49.204;10.652;2023-05-19T12:30:10;5.10;;;2.40;;
14394;SDS011;7282;49.204;10.652;2023-05-19T12:32:39;3.30;;;2.27;;
14394;SDS011;7282;49.204;10.652;2023-05-19T12:35:08;2.47;;;2.27;;
14394;SDS011;7282;49.204;10.652;2023-05-19T12:37:35;4.27;;;2.53;;
14394;SDS011;7282;49.204;10.652;2023-05-19T12:40:02;3.40;;;2.47;;
14394;SDS011;7282;49.204;10.652;2023-05-19T12:42:29;3.40;;;2.50;;
14394;SDS011;7282;49.204;10.652;2023-05-19T12:45:01;3.27;;;2.70;;
14394;SDS011;7282;49.204;10.652;2023-05-19T12:47:31;3.00;;;2.70;;
14394;SDS011;7282;49.204;10.652;2023-05-19T12:52:27;4.00;;;2.40;;
14394;SDS011;7282;49.204;10.652;2023-05-19T12:55:00;3.60;;;3.00;;
14394;SDS011;7282;49.204;10.652;2023-05-19T12:57:29;3.90;;;2.43;;
14394;SDS011;7282;49.204;10.652;2023-05-19T12:59:59;3.40;;;2.50;;
14394;SDS011;7282;49.204;10.652;2023-05-19T13:02:26;3.00;;;2.73;;
14394;SDS011;7282;49.204;10.652;2023-05-19T13:04:52;2.70;;;2.50;;
14394;SDS011;7282;49.204;10.652;2023-05-19T13:07:19;3.17;;;2.40;;
14394;SDS011;7282;49.204;10.652;2023-05-19T13:09:46;3.60;;;2.57;;
14394;SDS011;7282;49.204;10.652;2023-05-19T13:12:13;3.43;;;2.17;;
14394;SDS011;7282;49.204;10.652;2023-05-19T13:14:39;2.73;;;2.40;;
14394;SDS011;7282;49.204;10.652;2023-05-19T13:17:07;4.63;;;3.00;;
14394;SDS011;7282;49.204;10.652;2023-05-19T13:19:34;3.73;;;2.30;;
14394;SDS011;7282;49.204;10.652;2023-05-19T13:22:00;2.50;;;2.30;;
14394;SDS011;7282;49.204;10.652;2023-05-19T13:24:27;2.40;;;2.20;;
14394;SDS011;7282;49.204;10.652;2023-05-19T13:26:54;5.10;;;2.43;;
14394;SDS011;7282;49.204;10.652;2023-05-19T13:29:21;2.33;;;2.10;;
14394;SDS011;7282;49.204;10.652;2023-05-19T13:31:47;2.50;;;2.07;;
14394;SDS011;7282;49.204;10.652;2023-05-19T13:34:14;2.50;;;2.27;;
14394;SDS011;7282;49.204;10.652;2023-05-19T13:36:42;2.57;;;2.20;;
14394;SDS011;7282;49.204;10.652;2023-05-19T13:39:10;4.90;;;2.00;;
14394;SDS011;7282;49.204;10.652;2023-05-19T13:41:37;2.40;;;2.20;;
14394;SDS011;7282;49.204;10.652;2023-05-19T13:44:04;4.87;;;2.50;;
14394;SDS011;7282;49.204;10.652;2023-05-19T13:46:30;2.13;;;1.90;;
14394;SDS011;7282;49.204;10.652;2023-05-19T13:48:57;2.10;;;1.90;;
14394;SDS011;7282;49.204;10.652;2023-05-19T13:51:24;3.63;;;1.90;;
14394;SDS011;7282;49.204;10.652;2023-05-19T13:53:50;3.00;;;2.00;;
14394;SDS011;7282;49.204;10.652;2023-05-19T13:56:17;2.00;;;1.90;;
14394;SDS011;7282;49.204;10.652;2023-05-19T13:58:44;2.27;;;1.90;;
14394;SDS011;7282;49.204;10.652;2023-05-19T14:01:10;2.20;;;2.00;;
14394;SDS011;7282;49.204;10.652;2023-05-19T14:03:37;2.80;;;2.00;;
14394;SDS011;7282;49.204;10.652;2023-05-19T14:06:07;2.93;;;2.03;;
14394;SDS011;7282;49.204;10.652;2023-05-19T14:08:34;2.20;;;2.00;;
14394;SDS011;7282;49.204;10.652;2023-05-19T14:11:01;2.63;;;2.30;;
14394;SDS011;7282;49.204;10.652;2023-05-19T14:13:28;1.90;;;1.80;;
14394;SDS011;7282;49.204;10.652;2023-05-19T14:15:55;2.13;;;1.93;;
14394;SDS011;7282;49.204;10.652;2023-05-19T14:18:21;2.23;;;1.73;;
14394;SDS011;7282;49.204;10.652;2023-05-19T14:20:48;2.47;;;2.07;;
14394;SDS011;7282;49.204;10.652;2023-05-19T14:23:15;2.73;;;2.23;;
14394;SDS011;7282;49.204;10.652;2023-05-19T14:25:42;2.57;;;2.20;;
14394;SDS011;7282;49.204;10.652;2023-05-19T14:28:08;3.20;;;2.30;;
14394;SDS011;7282;49.204;10.652;2023-05-19T14:30:36;2.30;;;2.10;;
14394;SDS011;7282;49.204;10.652;2023-05-19T14:33:02;2.17;;;2.07;;
14394;SDS011;7282;49.204;10.652;2023-05-19T14:35:29;3.83;;;2.07;;
14394;SDS011;7282;49.204;10.652;2023-05-19T14:37:56;3.20;;;2.30;;
14394;SDS011;7282;49.204;10.652;2023-05-19T14:40:22;2.53;;;2.33;;
14394;SDS011;7282;49.204;10.652;2023-05-19T14:42:49;3.17;;;2.10;;
14394;SDS011;7282;49.204;10.652;2023-05-19T14:45:16;2.53;;;2.20;;
14394;SDS011;7282;49.204;10.652;2023-05-19T14:47:42;3.50;;;2.33;;
14394;SDS011;7282;49.204;10.652;2023-05-19T14:50:09;2.40;;;2.20;;
14394;SDS011;7282;49.204;10.652;2023-05-19T14:52:36;2.50;;;1.93;;
14394;SDS011;7282;49.204;10.652;2023-05-19T14:55:03;2.57;;;2.10;;
14394;SDS011;7282;49.204;10.652;2023-05-19T14:57:30;2.50;;;2.03;;
14394;SDS011;7282;49.204;10.652;2023-05-19T14:59:57;3.10;;;2.27;;
14394;SDS011;7282;49.204;10.652;2023-05-19T15:02:23;3.43;;;2.17;;
14394;SDS011;7282;49.204;10.652;2023-05-19T15:04:50;2.30;;;2.10;;
14394;SDS011;7282;49.204;10.652;2023-05-19T15:07:17;2.80;;;2.30;;
14394;SDS011;7282;49.204;10.652;2023-05-19T15:09:43;2.40;;;1.97;;
14394;SDS011;7282;49.204;10.652;2023-05-19T15:12:10;3.67;;;2.30;;